sensor_id;sensor_type;location;lat;lon;timestamp;temperature;humidity
11836;DHT22;5977;51.972;7.640;2023-03-01T00:01:41;14.20;76.50
11836;DHT22;5977;51.972;7.640;2023-03-01T00:04:09;14.20;76.60
11836;DHT22;5977;51.972;7.640;2023-03-01T00:06:37;14.20;76.60
11836;DHT22;5977;51.972;7.640;2023-03-01T00:09:05;14.20;76.60
11836;DHT22;5977;51.972;7.640;2023-03-01T00:11:33;14.20;76.50
11836;DHT22;5977;51.972;7.640;2023-03-01T00:14:02;14.20;76.60
11836;DHT22;5977;51.972;7.640;2023-03-01T00:16:35;14.30;76.80
11836;DHT22;5977;51.972;7.640;2023-03-01T00:19:06;14.20;76.70
11836;DHT22;5977;51.972;7.640;2023-03-01T00:21:34;14.20;76.80
11836;DHT22;5977;51.972;7.640;2023-03-01T00:24:02;14.20;76.90
11836;DHT22;5977;51.972;7.640;2023-03-01T00:26:30;14.20;77.00
11836;DHT22;5977;51.972;7.640;2023-03-01T00:28:59;14.20;76.90
11836;DHT22;5977;51.972;7.640;2023-03-01T00:31:30;14.20;77.00
11836;DHT22;5977;51.972;7.640;2023-03-01T00:34:00;14.20;76.80
11836;DHT22;5977;51.972;7.640;2023-03-01T00:36:30;14.20;77.00
11836;DHT22;5977;51.972;7.640;2023-03-01T00:38:59;14.10;77.00
11836;DHT22;5977;51.972;7.640;2023-03-01T00:41:27;14.20;77.20
11836;DHT22;5977;51.972;7.640;2023-03-01T00:43:55;14.20;77.30
11836;DHT22;5977;51.972;7.640;2023-03-01T00:46:25;14.20;77.50
11836;DHT22;5977;51.972;7.640;2023-03-01T00:48:54;14.20;77.60
11836;DHT22;5977;51.972;7.640;2023-03-01T00:51:24;14.10;77.80
11836;DHT22;5977;51.972;7.640;2023-03-01T00:53:54;14.00;77.90
11836;DHT22;5977;51.972;7.640;2023-03-01T00:56:23;14.10;78.20
11836;DHT22;5977;51.972;7.640;2023-03-01T00:58:51;14.10;78.20
11836;DHT22;5977;51.972;7.640;2023-03-01T01:01:21;14.00;78.00
11836;DHT22;5977;51.972;7.640;2023-03-01T01:03:51;14.10;78.20
11836;DHT22;5977;51.972;7.640;2023-03-01T01:06:23;14.10;78.40
11836;DHT22;5977;51.972;7.640;2023-03-01T01:08:52;14.10;78.40
11836;DHT22;5977;51.972;7.640;2023-03-01T01:11:22;14.00;78.60
11836;DHT22;5977;51.972;7.640;2023-03-01T01:13:52;14.00;78.70
11836;DHT22;5977;51.972;7.640;2023-03-01T01:16:22;14.10;78.90
11836;DHT22;5977;51.972;7.640;2023-03-01T01:18:51;14.00;78.80
11836;DHT22;5977;51.972;7.640;2023-03-01T01:21:22;14.00;79.20
11836;DHT22;5977;51.972;7.640;2023-03-01T01:23:51;14.00;79.10
11836;DHT22;5977;51.972;7.640;2023-03-01T01:26:21;14.00;79.10
11836;DHT22;5977;51.972;7.640;2023-03-01T01:28:50;14.00;79.00
11836;DHT22;5977;51.972;7.640;2023-03-01T01:31:18;14.00;79.10
11836;DHT22;5977;51.972;7.640;2023-03-01T01:33:46;14.00;79.20
11836;DHT22;5977;51.972;7.640;2023-03-01T01:36:14;14.00;79.40
11836;DHT22;5977;51.972;7.640;2023-03-01T01:38:44;14.00;79.30
11836;DHT22;5977;51.972;7.640;2023-03-01T01:41:13;14.00;79.30
11836;DHT22;5977;51.972;7.640;2023-03-01T01:43:43;14.00;79.30
11836;DHT22;5977;51.972;7.640;2023-03-01T01:46:25;14.00;79.50
11836;DHT22;5977;51.972;7.640;2023-03-01T01:49:00;14.00;79.20
11836;DHT22;5977;51.972;7.640;2023-03-01T01:51:32;14.00;79.50
11836;DHT22;5977;51.972;7.640;2023-03-01T01:54:10;14.10;79.50
11836;DHT22;5977;51.972;7.640;2023-03-01T01:56:41;14.00;81.90
11836;DHT22;5977;51.972;7.640;2023-03-01T01:59:11;14.00;82.20
11836;DHT22;5977;51.972;7.640;2023-03-01T02:01:39;14.00;82.40
11836;DHT22;5977;51.972;7.640;2023-03-01T02:04:07;14.00;82.60
11836;DHT22;5977;51.972;7.640;2023-03-01T02:06:37;13.90;82.50
11836;DHT22;5977;51.972;7.640;2023-03-01T02:09:12;14.00;82.40
11836;DHT22;5977;51.972;7.640;2023-03-01T02:11:41;14.00;82.40
11836;DHT22;5977;51.972;7.640;2023-03-01T02:14:10;14.00;82.60
11836;DHT22;5977;51.972;7.640;2023-03-01T02:16:38;13.90;83.30
11836;DHT22;5977;51.972;7.640;2023-03-01T02:19:07;14.00;82.70
11836;DHT22;5977;51.972;7.640;2023-03-01T02:21:41;13.90;82.70
11836;DHT22;5977;51.972;7.640;2023-03-01T02:24:19;13.90;82.60
11836;DHT22;5977;51.972;7.640;2023-03-01T02:26:55;13.90;82.50
11836;DHT22;5977;51.972;7.640;2023-03-01T02:29:27;13.90;82.70
11836;DHT22;5977;51.972;7.640;2023-03-01T02:31:58;13.90;82.80
11836;DHT22;5977;51.972;7.640;2023-03-01T02:34:26;13.90;82.80
11836;DHT22;5977;51.972;7.640;2023-03-01T02:36:58;13.90;83.00
11836;DHT22;5977;51.972;7.640;2023-03-01T02:39:30;13.90;82.80
11836;DHT22;5977;51.972;7.640;2023-03-01T02:41:59;13.80;82.70
11836;DHT22;5977;51.972;7.640;2023-03-01T02:44:30;13.90;82.90
11836;DHT22;5977;51.972;7.640;2023-03-01T02:47:01;13.90;82.60
11836;DHT22;5977;51.972;7.640;2023-03-01T02:49:32;13.90;82.50
11836;DHT22;5977;51.972;7.640;2023-03-01T02:52:23;13.90;82.70
11836;DHT22;5977;51.972;7.640;2023-03-01T02:54:58;13.80;82.40
11836;DHT22;5977;51.972;7.640;2023-03-01T02:57:29;13.90;82.70
11836;DHT22;5977;51.972;7.640;2023-03-01T03:00:03;13.80;82.70
11836;DHT22;5977;51.972;7.640;2023-03-01T03:02:35;13.80;82.50
11836;DHT22;5977;51.972;7.640;2023-03-01T03:05:17;13.80;82.90
11836;DHT22;5977;51.972;7.640;2023-03-01T03:07:47;13.80;82.90
11836;DHT22;5977;51.972;7.640;2023-03-01T03:10:18;13.90;83.60
11836;DHT22;5977;51.972;7.640;2023-03-01T03:12:49;13.90;82.90
11836;DHT22;5977;51.972;7.640;2023-03-01T03:15:20;13.90;82.80
11836;DHT22;5977;51.972;7.640;2023-03-01T03:17:48;13.80;82.70
11836;DHT22;5977;51.972;7.640;2023-03-01T03:20:17;13.80;82.70
11836;DHT22;5977;51.972;7.640;2023-03-01T03:22:47;13.80;82.80
11836;DHT22;5977;51.972;7.640;2023-03-01T03:25:15;13.80;82.80
11836;DHT22;5977;51.972;7.640;2023-03-01T03:27:45;13.90;82.90
11836;DHT22;5977;51.972;7.640;2023-03-01T03:30:15;13.90;82.90
11836;DHT22;5977;51.972;7.640;2023-03-01T03:32:46;13.90;82.80
11836;DHT22;5977;51.972;7.640;2023-03-01T03:35:19;13.80;82.70
11836;DHT22;5977;51.972;7.640;2023-03-01T03:37:47;13.80;82.70
11836;DHT22;5977;51.972;7.640;2023-03-01T03:40:33;13.90;82.80
11836;DHT22;5977;51.972;7.640;2023-03-01T03:43:02;13.80;82.70
11836;DHT22;5977;51.972;7.640;2023-03-01T03:45:30;13.80;82.90
11836;DHT22;5977;51.972;7.640;2023-03-01T03:48:01;13.80;82.90
11836;DHT22;5977;51.972;7.640;2023-03-01T03:50:31;13.80;82.80
11836;DHT22;5977;51.972;7.640;2023-03-01T03:53:01;13.80;82.80
11836;DHT22;5977;51.972;7.640;2023-03-01T03:55:29;13.80;82.90
11836;DHT22;5977;51.972;7.640;2023-03-01T03:57:58;13.80;83.20
11836;DHT22;5977;51.972;7.640;2023-03-01T04:00:28;13.80;83.00
11836;DHT22;5977;51.972;7.640;2023-03-01T04:02:56;13.80;83.00
11836;DHT22;5977;51.972;7.640;2023-03-01T04:05:26;13.80;82.90
11836;DHT22;5977;51.972;7.640;2023-03-01T04:07:54;14.00;82.90
11836;DHT22;5977;51.972;7.640;2023-03-01T04:10:30;14.20;82.40
11836;DHT22;5977;51.972;7.640;2023-03-01T04:12:58;14.30;82.20
11836;DHT22;5977;51.972;7.640;2023-03-01T04:15:27;14.30;82.30
11836;DHT22;5977;51.972;7.640;2023-03-01T04:17:55;14.40;82.30
11836;DHT22;5977;51.972;7.640;2023-03-01T04:20:26;14.40;82.40
11836;DHT22;5977;51.972;7.640;2023-03-01T04:22:58;14.50;82.20
11836;DHT22;5977;51.972;7.640;2023-03-01T04:25:26;14.50;82.00
11836;DHT22;5977;51.972;7.640;2023-03-01T04:27:57;14.50;82.10
11836;DHT22;5977;51.972;7.640;2023-03-01T04:30:24;14.50;82.00
11836;DHT22;5977;51.972;7.640;2023-03-01T04:32:52;14.60;82.00
11836;DHT22;5977;51.972;7.640;2023-03-01T04:35:20;14.50;81.80
11836;DHT22;5977;51.972;7.640;2023-03-01T04:37:49;14.50;81.60
11836;DHT22;5977;51.972;7.640;2023-03-01T04:40:17;14.50;81.30
11836;DHT22;5977;51.972;7.640;2023-03-01T04:42:45;14.50;81.40
11836;DHT22;5977;51.972;7.640;2023-03-01T04:45:13;14.50;81.50
11836;DHT22;5977;51.972;7.640;2023-03-01T04:47:42;14.60;81.30
11836;DHT22;5977;51.972;7.640;2023-03-01T04:50:12;14.60;80.90
11836;DHT22;5977;51.972;7.640;2023-03-01T04:52:41;14.50;80.70
11836;DHT22;5977;51.972;7.640;2023-03-01T04:55:11;14.60;80.50
11836;DHT22;5977;51.972;7.640;2023-03-01T04:57:39;14.60;80.30
11836;DHT22;5977;51.972;7.640;2023-03-01T05:00:10;14.60;80.40
11836;DHT22;5977;51.972;7.640;2023-03-01T05:02:48;14.50;79.90
11836;DHT22;5977;51.972;7.640;2023-03-01T05:05:26;14.60;79.90
11836;DHT22;5977;51.972;7.640;2023-03-01T05:07:56;14.70;79.60
11836;DHT22;5977;51.972;7.640;2023-03-01T05:10:26;14.70;79.80
11836;DHT22;5977;51.972;7.640;2023-03-01T05:12:56;14.70;79.60
11836;DHT22;5977;51.972;7.640;2023-03-01T05:15:25;14.80;76.40
11836;DHT22;5977;51.972;7.640;2023-03-01T05:17:54;14.70;76.30
11836;DHT22;5977;51.972;7.640;2023-03-01T05:20:22;14.80;76.50
11836;DHT22;5977;51.972;7.640;2023-03-01T05:22:50;14.90;76.50
11836;DHT22;5977;51.972;7.640;2023-03-01T05:25:18;14.80;76.50
11836;DHT22;5977;51.972;7.640;2023-03-01T05:27:49;14.80;76.70
11836;DHT22;5977;51.972;7.640;2023-03-01T05:30:17;14.90;76.80
11836;DHT22;5977;51.972;7.640;2023-03-01T05:32:47;14.90;77.00
11836;DHT22;5977;51.972;7.640;2023-03-01T05:35:16;14.90;77.00
11836;DHT22;5977;51.972;7.640;2023-03-01T05:37:47;14.90;77.20
11836;DHT22;5977;51.972;7.640;2023-03-01T05:40:17;14.90;77.50
11836;DHT22;5977;51.972;7.640;2023-03-01T05:42:47;14.90;77.70
11836;DHT22;5977;51.972;7.640;2023-03-01T05:45:17;14.90;78.20
11836;DHT22;5977;51.972;7.640;2023-03-01T05:47:46;15.00;78.70
11836;DHT22;5977;51.972;7.640;2023-03-01T05:50:17;14.90;78.80
11836;DHT22;5977;51.972;7.640;2023-03-01T05:52:47;15.00;79.10
11836;DHT22;5977;51.972;7.640;2023-03-01T05:55:16;14.90;80.20
11836;DHT22;5977;51.972;7.640;2023-03-01T05:57:45;14.90;80.20
11836;DHT22;5977;51.972;7.640;2023-03-01T06:02:44;15.00;80.20
11836;DHT22;5977;51.972;7.640;2023-03-01T06:05:13;15.00;80.40
11836;DHT22;5977;51.972;7.640;2023-03-01T06:07:41;15.00;80.60
11836;DHT22;5977;51.972;7.640;2023-03-01T06:10:11;15.00;80.60
11836;DHT22;5977;51.972;7.640;2023-03-01T06:12:40;15.00;80.30
11836;DHT22;5977;51.972;7.640;2023-03-01T06:15:09;15.00;80.50
11836;DHT22;5977;51.972;7.640;2023-03-01T06:17:39;14.90;80.30
11836;DHT22;5977;51.972;7.640;2023-03-01T06:20:11;15.00;80.30
11836;DHT22;5977;51.972;7.640;2023-03-01T06:22:40;15.00;80.10
11836;DHT22;5977;51.972;7.640;2023-03-01T06:25:09;14.90;80.20
11836;DHT22;5977;51.972;7.640;2023-03-01T06:27:37;14.90;80.30
11836;DHT22;5977;51.972;7.640;2023-03-01T06:30:06;14.90;80.40
11836;DHT22;5977;51.972;7.640;2023-03-01T06:32:34;14.90;80.30
11836;DHT22;5977;51.972;7.640;2023-03-01T06:35:03;14.70;79.20
11836;DHT22;5977;51.972;7.640;2023-03-01T06:37:32;14.30;80.40
11836;DHT22;5977;51.972;7.640;2023-03-01T06:40:01;14.60;81.00
11836;DHT22;5977;51.972;7.640;2023-03-01T06:42:34;14.70;80.60
11836;DHT22;5977;51.972;7.640;2023-03-01T06:45:03;14.90;80.60
11836;DHT22;5977;51.972;7.640;2023-03-01T06:47:32;14.90;80.30
11836;DHT22;5977;51.972;7.640;2023-03-01T06:49:59;14.80;80.20
11836;DHT22;5977;51.972;7.640;2023-03-01T06:52:27;14.70;80.10
11836;DHT22;5977;51.972;7.640;2023-03-01T06:54:57;14.70;80.20
11836;DHT22;5977;51.972;7.640;2023-03-01T06:57:25;14.70;80.10
11836;DHT22;5977;51.972;7.640;2023-03-01T06:59:53;14.80;80.00
11836;DHT22;5977;51.972;7.640;2023-03-01T07:02:20;14.80;79.90
11836;DHT22;5977;51.972;7.640;2023-03-01T07:04:49;14.40;79.20
11836;DHT22;5977;51.972;7.640;2023-03-01T07:07:17;13.80;79.90
11836;DHT22;5977;51.972;7.640;2023-03-01T07:09:45;13.50;80.50
11836;DHT22;5977;51.972;7.640;2023-03-01T07:12:15;13.30;80.90
11836;DHT22;5977;51.972;7.640;2023-03-01T07:14:44;13.10;80.80
11836;DHT22;5977;51.972;7.640;2023-03-01T07:17:11;12.90;80.70
11836;DHT22;5977;51.972;7.640;2023-03-01T07:19:39;12.80;81.20
11836;DHT22;5977;51.972;7.640;2023-03-01T07:22:07;12.80;81.30
11836;DHT22;5977;51.972;7.640;2023-03-01T07:24:35;12.70;81.00
11836;DHT22;5977;51.972;7.640;2023-03-01T07:27:03;12.80;81.40
11836;DHT22;5977;51.972;7.640;2023-03-01T07:29:33;12.70;81.20
11836;DHT22;5977;51.972;7.640;2023-03-01T07:32:03;12.60;81.20
11836;DHT22;5977;51.972;7.640;2023-03-01T07:34:32;12.40;80.50
11836;DHT22;5977;51.972;7.640;2023-03-01T07:37:00;12.30;80.40
11836;DHT22;5977;51.972;7.640;2023-03-01T07:39:27;12.20;80.10
11836;DHT22;5977;51.972;7.640;2023-03-01T07:41:55;12.50;80.40
11836;DHT22;5977;51.972;7.640;2023-03-01T07:44:23;12.60;80.90
11836;DHT22;5977;51.972;7.640;2023-03-01T07:46:52;12.60;80.40
11836;DHT22;5977;51.972;7.640;2023-03-01T07:49:22;12.80;80.10
11836;DHT22;5977;51.972;7.640;2023-03-01T07:51:50;13.10;79.60
11836;DHT22;5977;51.972;7.640;2023-03-01T07:54:18;13.60;75.40
11836;DHT22;5977;51.972;7.640;2023-03-01T07:56:46;14.30;73.70
11836;DHT22;5977;51.972;7.640;2023-03-01T07:59:14;14.80;71.90
11836;DHT22;5977;51.972;7.640;2023-03-01T08:01:42;14.90;71.00
11836;DHT22;5977;51.972;7.640;2023-03-01T08:04:11;15.20;70.30
11836;DHT22;5977;51.972;7.640;2023-03-01T08:06:39;14.80;68.50
11836;DHT22;5977;51.972;7.640;2023-03-01T08:09:06;14.50;69.00
11836;DHT22;5977;51.972;7.640;2023-03-01T08:11:35;14.50;70.20
11836;DHT22;5977;51.972;7.640;2023-03-01T08:14:03;14.50;70.60
11836;DHT22;5977;51.972;7.640;2023-03-01T08:16:30;14.50;70.30
11836;DHT22;5977;51.972;7.640;2023-03-01T08:19:03;14.60;71.00
11836;DHT22;5977;51.972;7.640;2023-03-01T08:21:33;14.80;70.50
11836;DHT22;5977;51.972;7.640;2023-03-01T08:24:02;14.80;70.20
11836;DHT22;5977;51.972;7.640;2023-03-01T08:26:30;14.70;69.30
11836;DHT22;5977;51.972;7.640;2023-03-01T08:28:59;14.90;70.60
11836;DHT22;5977;51.972;7.640;2023-03-01T08:31:29;15.20;71.00
11836;DHT22;5977;51.972;7.640;2023-03-01T08:33:59;15.10;69.80
11836;DHT22;5977;51.972;7.640;2023-03-01T08:36:29;15.20;69.80
11836;DHT22;5977;51.972;7.640;2023-03-01T08:38:59;15.10;68.80
11836;DHT22;5977;51.972;7.640;2023-03-01T08:41:27;15.10;70.40
11836;DHT22;5977;51.972;7.640;2023-03-01T08:43:55;15.30;70.30
11836;DHT22;5977;51.972;7.640;2023-03-01T08:46:26;15.30;69.80
11836;DHT22;5977;51.972;7.640;2023-03-01T08:48:54;15.30;69.90
11836;DHT22;5977;51.972;7.640;2023-03-01T08:51:23;15.30;70.80
11836;DHT22;5977;51.972;7.640;2023-03-01T08:53:51;15.30;68.80
11836;DHT22;5977;51.972;7.640;2023-03-01T08:56:20;15.50;70.70
11836;DHT22;5977;51.972;7.640;2023-03-01T08:58:48;15.50;70.50
11836;DHT22;5977;51.972;7.640;2023-03-01T09:01:18;15.60;70.00
11836;DHT22;5977;51.972;7.640;2023-03-01T09:03:46;15.60;70.10
11836;DHT22;5977;51.972;7.640;2023-03-01T09:06:14;15.60;69.00
11836;DHT22;5977;51.972;7.640;2023-03-01T09:08:45;15.40;69.80
11836;DHT22;5977;51.972;7.640;2023-03-01T09:11:16;15.40;69.90
11836;DHT22;5977;51.972;7.640;2023-03-01T09:13:47;15.30;68.50
11836;DHT22;5977;51.972;7.640;2023-03-01T09:16:16;15.20;69.70
11836;DHT22;5977;51.972;7.640;2023-03-01T09:18:48;15.30;69.40
11836;DHT22;5977;51.972;7.640;2023-03-01T09:21:16;15.20;68.30
11836;DHT22;5977;51.972;7.640;2023-03-01T09:23:57;15.30;70.30
11836;DHT22;5977;51.972;7.640;2023-03-01T09:26:25;15.10;68.00
11836;DHT22;5977;51.972;7.640;2023-03-01T09:28:55;14.90;69.80
11836;DHT22;5977;51.972;7.640;2023-03-01T09:31:24;15.30;71.00
11836;DHT22;5977;51.972;7.640;2023-03-01T09:33:52;15.20;69.70
11836;DHT22;5977;51.972;7.640;2023-03-01T09:36:23;15.00;68.70
11836;DHT22;5977;51.972;7.640;2023-03-01T09:38:52;15.50;71.00
11836;DHT22;5977;51.972;7.640;2023-03-01T09:41:38;15.40;70.60
11836;DHT22;5977;51.972;7.640;2023-03-01T09:44:18;15.40;70.00
11836;DHT22;5977;51.972;7.640;2023-03-01T09:46:48;15.20;69.90
11836;DHT22;5977;51.972;7.640;2023-03-01T09:49:19;15.60;73.20
11836;DHT22;5977;51.972;7.640;2023-03-01T09:51:55;15.80;71.10
11836;DHT22;5977;51.972;7.640;2023-03-01T09:54:24;15.60;69.20
11836;DHT22;5977;51.972;7.640;2023-03-01T09:57:03;15.40;70.00
11836;DHT22;5977;51.972;7.640;2023-03-01T09:59:48;15.50;71.20
11836;DHT22;5977;51.972;7.640;2023-03-01T10:02:31;15.50;72.70
11836;DHT22;5977;51.972;7.640;2023-03-01T10:05:11;15.80;73.20
11836;DHT22;5977;51.972;7.640;2023-03-01T10:07:48;15.90;71.40
11836;DHT22;5977;51.972;7.640;2023-03-01T10:10:26;15.30;71.20
11836;DHT22;5977;51.972;7.640;2023-03-01T10:12:56;15.30;74.80
11836;DHT22;5977;51.972;7.640;2023-03-01T10:15:33;15.40;72.00
11836;DHT22;5977;51.972;7.640;2023-03-01T10:18:06;15.40;74.30
11836;DHT22;5977;51.972;7.640;2023-03-01T10:20:44;15.10;70.30
11836;DHT22;5977;51.972;7.640;2023-03-01T10:23:14;14.80;73.20
11836;DHT22;5977;51.972;7.640;2023-03-01T10:25:54;14.30;70.70
11836;DHT22;5977;51.972;7.640;2023-03-01T10:28:27;14.00;71.00
11836;DHT22;5977;51.972;7.640;2023-03-01T10:30:59;14.40;74.90
11836;DHT22;5977;51.972;7.640;2023-03-01T10:33:29;14.70;74.20
11836;DHT22;5977;51.972;7.640;2023-03-01T10:35:58;14.60;72.70
11836;DHT22;5977;51.972;7.640;2023-03-01T10:38:26;14.40;73.00
11836;DHT22;5977;51.972;7.640;2023-03-01T10:40:59;14.80;77.10
11836;DHT22;5977;51.972;7.640;2023-03-01T10:43:40;15.20;73.60
11836;DHT22;5977;51.972;7.640;2023-03-01T10:46:24;14.80;70.00
11836;DHT22;5977;51.972;7.640;2023-03-01T10:49:14;14.20;72.60
11836;DHT22;5977;51.972;7.640;2023-03-01T10:51:44;14.10;72.30
11836;DHT22;5977;51.972;7.640;2023-03-01T10:54:18;14.10;72.90
11836;DHT22;5977;51.972;7.640;2023-03-01T10:56:47;14.30;75.50
11836;DHT22;5977;51.972;7.640;2023-03-01T10:59:27;14.40;73.60
11836;DHT22;5977;51.972;7.640;2023-03-01T11:02:15;14.90;75.60
11836;DHT22;5977;51.972;7.640;2023-03-01T11:04:59;15.10;74.50
11836;DHT22;5977;51.972;7.640;2023-03-01T11:07:27;15.00;71.80
11836;DHT22;5977;51.972;7.640;2023-03-01T11:09:56;14.80;69.50
11836;DHT22;5977;51.972;7.640;2023-03-01T11:12:24;14.50;72.10
11836;DHT22;5977;51.972;7.640;2023-03-01T11:14:55;14.70;71.20
11836;DHT22;5977;51.972;7.640;2023-03-01T11:17:27;14.40;70.30
11836;DHT22;5977;51.972;7.640;2023-03-01T11:20:05;14.30;70.30
11836;DHT22;5977;51.972;7.640;2023-03-01T11:22:34;14.00;70.10
11836;DHT22;5977;51.972;7.640;2023-03-01T11:25:04;13.90;70.80
11836;DHT22;5977;51.972;7.640;2023-03-01T11:27:40;14.20;73.20
11836;DHT22;5977;51.972;7.640;2023-03-01T11:30:17;14.30;71.40
11836;DHT22;5977;51.972;7.640;2023-03-01T11:32:56;14.10;69.80
11836;DHT22;5977;51.972;7.640;2023-03-01T11:35:28;13.90;67.70
11836;DHT22;5977;51.972;7.640;2023-03-01T11:38:06;14.00;69.80
11836;DHT22;5977;51.972;7.640;2023-03-01T11:40:40;13.90;67.40
11836;DHT22;5977;51.972;7.640;2023-03-01T11:43:16;13.90;66.70
11836;DHT22;5977;51.972;7.640;2023-03-01T11:46:02;14.10;67.10
11836;DHT22;5977;51.972;7.640;2023-03-01T11:48:48;14.00;66.70
11836;DHT22;5977;51.972;7.640;2023-03-01T11:51:29;13.60;64.70
11836;DHT22;5977;51.972;7.640;2023-03-01T11:54:06;13.40;66.10
11836;DHT22;5977;51.972;7.640;2023-03-01T11:56:40;13.40;67.50
11836;DHT22;5977;51.972;7.640;2023-03-01T11:59:34;13.40;66.80
11836;DHT22;5977;51.972;7.640;2023-03-01T12:02:27;13.00;64.60
11836;DHT22;5977;51.972;7.640;2023-03-01T12:05:21;13.00;64.70
11836;DHT22;5977;51.972;7.640;2023-03-01T12:07:57;13.00;65.40
11836;DHT22;5977;51.972;7.640;2023-03-01T12:10:29;13.00;66.30
11836;DHT22;5977;51.972;7.640;2023-03-01T12:13:19;12.90;65.20
11836;DHT22;5977;51.972;7.640;2023-03-01T12:16:03;13.00;65.90
11836;DHT22;5977;51.972;7.640;2023-03-01T12:18:43;13.00;64.10
11836;DHT22;5977;51.972;7.640;2023-03-01T12:21:24;12.80;64.40
11836;DHT22;5977;51.972;7.640;2023-03-01T12:24:18;12.60;65.00
11836;DHT22;5977;51.972;7.640;2023-03-01T12:26:58;12.60;65.00
11836;DHT22;5977;51.972;7.640;2023-03-01T12:29:32;12.70;64.40
11836;DHT22;5977;51.972;7.640;2023-03-01T12:32:19;12.90;65.40
11836;DHT22;5977;51.972;7.640;2023-03-01T12:35:08;13.00;65.50
11836;DHT22;5977;51.972;7.640;2023-03-01T12:37:47;13.00;64.60
11836;DHT22;5977;51.972;7.640;2023-03-01T12:40:43;13.10;64.80
11836;DHT22;5977;51.972;7.640;2023-03-01T12:43:22;13.00;65.00
11836;DHT22;5977;51.972;7.640;2023-03-01T12:46:05;13.00;64.80
11836;DHT22;5977;51.972;7.640;2023-03-01T12:48:43;12.60;63.70
11836;DHT22;5977;51.972;7.640;2023-03-01T12:51:16;12.50;65.50
11836;DHT22;5977;51.972;7.640;2023-03-01T12:53:49;12.50;65.20
11836;DHT22;5977;51.972;7.640;2023-03-01T12:56:20;12.70;65.90
11836;DHT22;5977;51.972;7.640;2023-03-01T12:58:56;12.50;64.80
11836;DHT22;5977;51.972;7.640;2023-03-01T13:01:33;12.50;64.10
11836;DHT22;5977;51.972;7.640;2023-03-01T13:04:17;12.40;64.60
11836;DHT22;5977;51.972;7.640;2023-03-01T13:07:03;12.60;65.20
11836;DHT22;5977;51.972;7.640;2023-03-01T13:09:38;12.50;64.60
11836;DHT22;5977;51.972;7.640;2023-03-01T13:12:44;12.70;64.40
11836;DHT22;5977;51.972;7.640;2023-03-01T13:15:28;12.80;64.70
11836;DHT22;5977;51.972;7.640;2023-03-01T13:17:58;12.60;63.60
11836;DHT22;5977;51.972;7.640;2023-03-01T13:20:31;12.40;63.80
11836;DHT22;5977;51.972;7.640;2023-03-01T13:23:06;12.30;63.30
11836;DHT22;5977;51.972;7.640;2023-03-01T13:26:03;12.50;64.10
11836;DHT22;5977;51.972;7.640;2023-03-01T13:28:56;12.40;63.20
11836;DHT22;5977;51.972;7.640;2023-03-01T13:34:49;12.70;63.60
11836;DHT22;5977;51.972;7.640;2023-03-01T13:37:21;12.60;64.30
11836;DHT22;5977;51.972;7.640;2023-03-01T13:39:49;12.60;64.00
11836;DHT22;5977;51.972;7.640;2023-03-01T13:42:39;12.50;64.30
11836;DHT22;5977;51.972;7.640;2023-03-01T13:45:20;12.40;63.50
11836;DHT22;5977;51.972;7.640;2023-03-01T13:47:53;12.30;63.50
11836;DHT22;5977;51.972;7.640;2023-03-01T13:50:27;12.40;64.40
11836;DHT22;5977;51.972;7.640;2023-03-01T13:52:58;12.20;64.20
11836;DHT22;5977;51.972;7.640;2023-03-01T13:55:34;12.40;64.10
11836;DHT22;5977;51.972;7.640;2023-03-01T13:58:16;12.30;63.50
11836;DHT22;5977;51.972;7.640;2023-03-01T14:00:46;12.40;63.90
11836;DHT22;5977;51.972;7.640;2023-03-01T14:03:16;12.40;64.30
11836;DHT22;5977;51.972;7.640;2023-03-01T14:06:02;12.20;63.20
11836;DHT22;5977;51.972;7.640;2023-03-01T14:08:41;12.10;62.70
11836;DHT22;5977;51.972;7.640;2023-03-01T14:11:43;12.20;63.70
11836;DHT22;5977;51.972;7.640;2023-03-01T14:14:25;12.40;63.80
11836;DHT22;5977;51.972;7.640;2023-03-01T14:17:10;12.50;63.10
11836;DHT22;5977;51.972;7.640;2023-03-01T14:19:40;12.30;62.70
11836;DHT22;5977;51.972;7.640;2023-03-01T14:22:23;12.20;63.70
11836;DHT22;5977;51.972;7.640;2023-03-01T14:24:54;12.30;63.30
11836;DHT22;5977;51.972;7.640;2023-03-01T14:27:23;12.30;63.40
11836;DHT22;5977;51.972;7.640;2023-03-01T14:29:59;12.30;62.90
11836;DHT22;5977;51.972;7.640;2023-03-01T14:32:29;12.30;63.00
11836;DHT22;5977;51.972;7.640;2023-03-01T14:34:59;12.10;63.80
11836;DHT22;5977;51.972;7.640;2023-03-01T14:37:29;12.30;64.00
11836;DHT22;5977;51.972;7.640;2023-03-01T14:39:58;12.50;64.10
11836;DHT22;5977;51.972;7.640;2023-03-01T14:42:29;12.70;65.90
11836;DHT22;5977;51.972;7.640;2023-03-01T14:45:01;12.60;64.80
11836;DHT22;5977;51.972;7.640;2023-03-01T14:47:31;12.50;64.10
11836;DHT22;5977;51.972;7.640;2023-03-01T14:50:01;12.30;63.70
11836;DHT22;5977;51.972;7.640;2023-03-01T14:52:35;12.20;64.90
11836;DHT22;5977;51.972;7.640;2023-03-01T14:55:05;12.40;64.40
11836;DHT22;5977;51.972;7.640;2023-03-01T14:57:34;12.30;64.00
11836;DHT22;5977;51.972;7.640;2023-03-01T15:00:06;12.30;64.70
11836;DHT22;5977;51.972;7.640;2023-03-01T15:02:35;12.30;65.20
11836;DHT22;5977;51.972;7.640;2023-03-01T15:05:04;12.20;64.20
11836;DHT22;5977;51.972;7.640;2023-03-01T15:07:38;12.20;64.90
11836;DHT22;5977;51.972;7.640;2023-03-01T15:10:14;12.20;64.30
11836;DHT22;5977;51.972;7.640;2023-03-01T15:12:44;12.20;65.00
11836;DHT22;5977;51.972;7.640;2023-03-01T15:15:39;12.20;64.40
11836;DHT22;5977;51.972;7.640;2023-03-01T15:18:16;12.30;64.70
11836;DHT22;5977;51.972;7.640;2023-03-01T15:20:45;12.30;64.50
11836;DHT22;5977;51.972;7.640;2023-03-01T15:23:20;12.40;65.90
11836;DHT22;5977;51.972;7.640;2023-03-01T15:25:50;12.30;64.50
11836;DHT22;5977;51.972;7.640;2023-03-01T15:28:24;12.30;64.60
11836;DHT22;5977;51.972;7.640;2023-03-01T15:31:01;12.30;64.90
11836;DHT22;5977;51.972;7.640;2023-03-01T15:33:37;12.30;64.60
11836;DHT22;5977;51.972;7.640;2023-03-01T15:36:29;12.30;64.60
11836;DHT22;5977;51.972;7.640;2023-03-01T15:38:59;12.40;64.10
11836;DHT22;5977;51.972;7.640;2023-03-01T15:41:29;12.30;64.60
11836;DHT22;5977;51.972;7.640;2023-03-01T15:43:59;12.30;64.00
11836;DHT22;5977;51.972;7.640;2023-03-01T15:46:31;12.20;63.50
11836;DHT22;5977;51.972;7.640;2023-03-01T15:49:02;12.20;64.00
11836;DHT22;5977;51.972;7.640;2023-03-01T15:51:33;12.20;63.80
11836;DHT22;5977;51.972;7.640;2023-03-01T15:54:05;11.80;63.70
11836;DHT22;5977;51.972;7.640;2023-03-01T15:56:34;12.10;64.70
11836;DHT22;5977;51.972;7.640;2023-03-01T15:59:02;12.30;65.20
11836;DHT22;5977;51.972;7.640;2023-03-01T16:01:32;12.30;63.80
11836;DHT22;5977;51.972;7.640;2023-03-01T16:04:01;12.40;65.00
11836;DHT22;5977;51.972;7.640;2023-03-01T16:06:29;12.40;65.30
11836;DHT22;5977;51.972;7.640;2023-03-01T16:08:57;12.50;65.00
11836;DHT22;5977;51.972;7.640;2023-03-01T16:11:25;12.40;65.00
11836;DHT22;5977;51.972;7.640;2023-03-01T16:13:53;12.80;70.90
11836;DHT22;5977;51.972;7.640;2023-03-01T16:16:21;12.60;70.80
11836;DHT22;5977;51.972;7.640;2023-03-01T16:18:50;12.60;69.90
11836;DHT22;5977;51.972;7.640;2023-03-01T16:21:22;12.70;69.20
11836;DHT22;5977;51.972;7.640;2023-03-01T16:23:51;12.50;68.20